Time,TemperatureF,DewpointF,PressureIn,WindDirection,WindDirectionDegrees,WindSpeedMPH,WindSpeedGustMPH,Humidity,HourlyPrecipIn,Conditions,Clouds,dailyrainin,SoftwareType,DateUTC
2013-04-06 00:02:00,40.0,36.0,29.88,SW,219,11.0,16.0,85,0.00,,,0.07,,2013-04-06 07:02:00,
2013-04-06 00:12:00,40.0,36.0,29.88,SW,219,11.0,16.0,85,0.00,,,0.07,,2013-04-06 07:12:00,
2013-04-06 00:22:00,40.0,36.0,29.88,SSW,204,7.0,17.0,86,0.00,,,0.07,,2013-04-06 07:22:00,
2013-04-06 00:32:00,40.0,36.0,29.87,WSW,243,7.0,17.0,86,0.00,,,0.03,,2013-04-06 07:32:00,
2013-04-06 00:42:00,40.0,36.0,29.87,WSW,243,7.0,17.0,86,0.00,,,0.03,,2013-04-06 07:42:00,
2013-04-06 00:52:00,40.0,36.0,29.88,WSW,242,8.0,18.0,87,0.00,,,0.03,,2013-04-06 07:52:00,
2013-04-06 01:02:00,40.0,36.0,29.87,SW,218,7.0,19.0,87,0.00,,,0.03,,2013-04-06 08:02:00,
2013-04-06 01:12:00,40.0,36.0,29.87,SW,218,7.0,19.0,87,0.00,,,0.03,,2013-04-06 08:12:00,
2013-04-06 01:22:00,40.0,36.0,29.86,SSW,209,7.0,17.0,87,0.00,,,0.03,,2013-04-06 08:22:00,
2013-04-06 01:32:00,39.0,36.0,29.86,SW,215,7.0,13.0,89,0.00,,,0.03,,2013-04-06 08:32:00,
2013-04-06 01:42:00,39.0,36.0,29.86,SW,215,7.0,13.0,89,0.00,,,0.03,,2013-04-06 08:42:00,
2013-04-06 01:52:00,39.0,36.0,29.86,SSW,204,9.0,16.0,89,0.00,,,0.03,,2013-04-06 08:52:00,
2013-04-06 02:02:00,39.0,37.0,29.86,SW,230,8.0,15.0,91,0.00,,,0.03,,2013-04-06 09:02:00,
2013-04-06 02:12:00,39.0,37.0,29.86,SW,230,8.0,15.0,91,0.00,,,0.03,,2013-04-06 09:12:00,
2013-04-06 02:22:00,39.0,37.0,29.85,WSW,247,9.0,18.0,91,0.00,,,0.03,,2013-04-06 09:22:00,
2013-04-06 02:32:00,40.0,38.0,29.85,SW,227,9.0,19.0,91,0.00,,,0.03,,2013-04-06 09:32:00,
2013-04-06 02:42:00,40.0,38.0,29.85,SW,227,9.0,19.0,91,0.00,,,0.03,,2013-04-06 09:42:00,
2013-04-06 02:52:00,39.0,37.0,29.84,SSW,209,10.0,21.0,91,0.00,,,0.03,,2013-04-06 09:52:00,
2013-04-06 03:02:00,40.0,38.0,29.83,SSW,211,8.0,19.0,91,0.00,,,0.03,,2013-04-06 10:02:00,
2013-04-06 03:12:00,40.0,38.0,29.83,SSW,211,8.0,19.0,91,0.00,,,0.03,,2013-04-06 10:12:00,
2013-04-06 03:22:00,40.0,37.0,29.83,SSW,212,10.0,21.0,90,0.00,,,0.03,,2013-04-06 10:22:00,
2013-04-06 03:32:00,40.0,37.0,29.84,WSW,249,10.0,20.0,90,0.00,,,0.03,,2013-04-06 10:32:00,
2013-04-06 03:42:00,40.0,37.0,29.84,WSW,249,10.0,20.0,90,0.00,,,0.03,,2013-04-06 10:42:00,
2013-04-06 03:52:00,40.0,37.0,29.84,WSW,249,10.0,20.0,90,0.00,,,0.03,,2013-04-06 10:52:00,
2013-04-06 04:02:00,39.0,37.0,29.85,SW,222,8.0,16.0,91,0.00,,,0.03,,2013-04-06 11:02:00,
2013-04-06 04:12:00,39.0,37.0,29.85,SW,222,8.0,16.0,91,0.00,,,0.03,,2013-04-06 11:12:00,
2013-04-06 04:22:00,39.0,37.0,29.86,SW,236,6.0,16.0,92,0.00,,,0.03,,2013-04-06 11:22:00,
2013-04-06 04:32:00,39.0,37.0,29.87,SSW,212,6.0,13.0,93,0.01,,,0.04,,2013-04-06 11:32:00,
2013-04-06 04:42:00,39.0,37.0,29.87,SSW,212,6.0,13.0,93,0.01,,,0.04,,2013-04-06 11:42:00,
2013-04-06 04:52:00,39.0,37.0,29.87,SW,221,6.0,14.0,93,0.01,,,0.04,,2013-04-06 11:52:00,
2013-04-06 05:02:00,39.0,36.0,29.87,SSW,203,10.0,19.0,90,0.01,,,0.04,,2013-04-06 12:02:00,
2013-04-06 05:12:00,39.0,36.0,29.87,SSW,203,10.0,19.0,90,0.01,,,0.04,,2013-04-06 12:12:00,
2013-04-06 05:21:00,39.0,36.0,29.87,SW,216,10.0,17.0,89,0.01,,,0.04,,2013-04-06 12:21:00,
2013-04-06 05:32:00,39.0,35.0,29.87,SSW,202,12.0,24.0,87,0.00,,,0.04,,2013-04-06 12:32:00,
2013-04-06 05:42:00,39.0,35.0,29.87,SSW,202,12.0,24.0,87,0.00,,,0.04,,2013-04-06 12:42:00,
2013-04-06 05:52:00,39.0,34.0,29.88,SW,236,16.0,25.0,83,0.00,,,0.04,,2013-04-06 12:52:00,
2013-04-06 06:02:00,39.0,35.0,29.87,SSW,212,11.0,24.0,85,0.00,,,0.04,,2013-04-06 13:02:00,
2013-04-06 06:12:00,39.0,35.0,29.87,SSW,212,11.0,24.0,85,0.00,,,0.04,,2013-04-06 13:12:00,
2013-04-06 06:23:00,39.0,35.0,29.87,WSW,240,8.0,22.0,85,0.00,,,0.04,,2013-04-06 13:23:00,
2013-04-06 06:32:00,39.0,35.0,29.88,WSW,246,10.0,21.0,84,0.00,,,0.04,,2013-04-06 13:32:00,
2013-04-06 06:42:00,39.0,35.0,29.88,WSW,246,10.0,21.0,84,0.00,,,0.04,,2013-04-06 13:42:00,
2013-04-06 06:52:00,38.0,34.0,29.89,SW,217,7.0,13.0,85,0.00,,,0.04,,2013-04-06 13:52:00,
2013-04-06 07:03:00,38.0,34.0,29.89,WSW,240,8.0,16.0,85,0.00,,,0.04,,2013-04-06 14:03:00,
2013-04-06 07:12:00,38.0,34.0,29.89,WSW,240,8.0,16.0,85,0.00,,,0.04,,2013-04-06 14:12:00,
2013-04-06 07:22:00,38.0,34.0,29.89,SW,232,7.0,20.0,84,0.00,,,0.04,,2013-04-06 14:22:00,
2013-04-06 07:32:00,38.0,34.0,29.90,WSW,251,10.0,20.0,84,0.00,,,0.04,,2013-04-06 14:32:00,
2013-04-06 07:42:00,38.0,34.0,29.90,WSW,251,10.0,20.0,84,0.00,,,0.04,,2013-04-06 14:42:00,
2013-04-06 07:52:00,38.0,33.0,29.90,SW,218,8.0,21.0,83,0.00,,,0.04,,2013-04-06 14:52:00,
2013-04-06 08:02:00,39.0,34.0,29.90,SW,234,9.0,19.0,82,0.00,,,0.04,,2013-04-06 15:02:00,
2013-04-06 08:11:00,39.0,34.0,29.90,SW,234,9.0,19.0,82,0.00,,,0.04,,2013-04-06 15:11:00,
2013-04-06 08:22:00,39.0,34.0,29.91,SW,221,9.0,20.0,81,0.00,,,0.04,,2013-04-06 15:22:00,
2013-04-06 08:33:00,39.0,34.0,29.91,WSW,238,6.0,14.0,83,0.00,,,0.04,,2013-04-06 15:33:00,
2013-04-06 08:42:00,39.0,34.0,29.91,WSW,238,6.0,14.0,83,0.00,,,0.04,,2013-04-06 15:42:00,
2013-04-06 08:52:00,40.0,34.0,29.91,SW,232,10.0,22.0,80,0.00,,,0.04,,2013-04-06 15:52:00,
2013-04-06 09:04:00,40.0,34.0,29.91,SW,232,8.0,19.0,80,0.00,,,0.04,,2013-04-06 16:04:00,
2013-04-06 09:16:00,40.0,34.0,29.91,SW,232,8.0,19.0,80,0.00,,,0.04,,2013-04-06 16:16:00,
2013-04-06 09:22:00,41.0,35.0,29.91,SW,234,7.0,19.0,79,0.00,,,0.04,,2013-04-06 16:22:00,
2013-04-06 09:32:00,40.0,36.0,29.92,WSW,257,5.0,12.0,84,0.00,,,0.04,,2013-04-06 16:32:00,
2013-04-06 09:42:00,40.0,36.0,29.92,WSW,257,5.0,12.0,84,0.00,,,0.04,,2013-04-06 16:42:00,
2013-04-06 09:52:00,38.0,35.0,29.92,SW,215,8.0,16.0,88,0.01,,,0.05,,2013-04-06 16:52:00,
2013-04-06 10:02:00,39.0,36.0,29.92,WSW,240,6.0,15.0,90,0.01,,,0.05,,2013-04-06 17:02:00,
2013-04-06 10:12:00,39.0,36.0,29.92,WSW,240,6.0,15.0,90,0.01,,,0.05,,2013-04-06 17:12:00,
2013-04-06 10:22:00,39.0,36.0,29.93,WNW,289,7.0,14.0,89,0.01,,,0.05,,2013-04-06 17:22:00,
2013-04-06 10:32:00,38.0,36.0,29.93,West,275,6.0,11.0,91,0.02,,,0.06,,2013-04-06 17:32:00,
2013-04-06 10:42:00,38.0,36.0,29.93,West,275,6.0,11.0,91,0.02,,,0.06,,2013-04-06 17:42:00,
2013-04-06 10:52:00,38.0,36.0,29.93,West,263,6.0,13.0,91,0.01,,,0.06,,2013-04-06 17:52:00,
2013-04-06 11:02:00,39.0,37.0,29.94,SW,232,4.0,12.0,91,0.01,,,0.06,,2013-04-06 18:02:00,
2013-04-06 11:12:00,39.0,37.0,29.94,SW,232,4.0,12.0,91,0.01,,,0.06,,2013-04-06 18:12:00,
2013-04-06 11:22:00,40.0,37.0,29.95,SSW,209,6.0,12.0,88,0.00,,,0.06,,2013-04-06 18:22:00,
2013-04-06 11:32:00,41.0,36.0,29.95,WSW,254,7.0,19.0,82,0.00,,,0.05,,2013-04-06 18:32:00,
2013-04-06 11:42:00,41.0,36.0,29.95,WSW,254,7.0,19.0,82,0.00,,,0.05,,2013-04-06 18:42:00,
2013-04-06 11:52:00,44.0,38.0,29.95,SW,227,9.0,21.0,78,0.00,,,0.05,,2013-04-06 18:52:00,
2013-04-06 12:02:00,43.0,34.0,29.94,WNW,286,11.0,22.0,70,0.00,,,0.05,,2013-04-06 19:02:00,
2013-04-06 12:12:00,43.0,34.0,29.94,WNW,286,11.0,22.0,70,0.00,,,0.05,,2013-04-06 19:12:00,
2013-04-06 12:22:00,44.0,35.0,29.95,WSW,256,11.0,23.0,71,0.00,,,0.05,,2013-04-06 19:22:00,
2013-04-06 12:32:00,44.0,34.0,29.95,West,259,9.0,30.0,69,0.00,,,0.05,,2013-04-06 19:32:00,
2013-04-06 12:42:00,44.0,34.0,29.95,West,259,9.0,30.0,69,0.00,,,0.05,,2013-04-06 19:42:00,
2013-04-06 12:52:00,46.0,36.0,29.94,West,276,9.0,26.0,68,0.00,,,0.05,,2013-04-06 19:52:00,
2013-04-06 13:02:00,45.0,36.0,29.95,West,266,11.0,22.0,71,0.00,,,0.05,,2013-04-06 20:02:00,
2013-04-06 13:12:00,45.0,36.0,29.95,West,266,11.0,22.0,71,0.00,,,0.05,,2013-04-06 20:12:00,
2013-04-06 13:22:00,44.0,36.0,29.94,WNW,284,7.0,20.0,73,0.00,,,0.05,,2013-04-06 20:22:00,
2013-04-06 13:32:00,46.0,36.0,29.94,WSW,254,10.0,22.0,68,0.00,,,0.05,,2013-04-06 20:32:00,
2013-04-06 13:42:00,46.0,36.0,29.94,WSW,254,10.0,22.0,68,0.00,,,0.05,,2013-04-06 20:42:00,
2013-04-06 13:52:00,45.0,34.0,29.94,WNW,286,13.0,23.0,64,0.00,,,0.05,,2013-04-06 20:52:00,
2013-04-06 14:02:00,45.0,34.0,29.94,SW,215,14.0,24.0,64,0.00,,,0.05,,2013-04-06 21:02:00,
2013-04-06 14:12:00,45.0,34.0,29.93,SW,230,13.0,24.0,64,0.00,,,0.05,,2013-04-06 21:12:00,
2013-04-06 14:22:00,45.0,34.0,29.93,SW,230,13.0,24.0,64,0.00,,,0.05,,2013-04-06 21:22:00,
2013-04-06 14:33:00,45.0,34.0,29.93,WSW,238,12.0,23.0,66,0.00,,,0.05,,2013-04-06 21:33:00,
2013-04-06 14:43:00,45.0,34.0,29.93,WSW,238,12.0,23.0,66,0.00,,,0.05,,2013-04-06 21:43:00,
2013-04-06 14:52:00,46.0,35.0,29.93,WSW,254,9.0,22.0,65,0.00,,,0.05,,2013-04-06 21:52:00,
2013-04-06 15:02:00,47.0,34.0,29.93,West,264,11.0,21.0,60,0.00,,,0.05,,2013-04-06 22:02:00,
2013-04-06 15:12:00,47.0,34.0,29.93,West,264,11.0,21.0,60,0.00,,,0.05,,2013-04-06 22:12:00,
2013-04-06 15:22:00,47.0,33.0,29.93,WSW,237,10.0,25.0,59,0.00,,,0.05,,2013-04-06 22:22:00,
2013-04-06 15:33:00,47.0,33.0,29.93,SW,227,10.0,21.0,58,0.00,,,0.05,,2013-04-06 22:33:00,
2013-04-06 15:42:00,47.0,33.0,29.93,SW,227,10.0,21.0,58,0.00,,,0.05,,2013-04-06 22:42:00,
2013-04-06 15:52:00,46.0,32.0,29.92,West,271,14.0,25.0,57,0.00,,,0.05,,2013-04-06 22:52:00,
2013-04-06 16:03:00,45.0,32.0,29.92,SSW,213,12.0,24.0,61,0.00,,,0.05,,2013-04-06 23:03:00,
2013-04-06 16:22:00,45.0,34.0,29.92,SW,216,12.0,24.0,64,0.00,,,0.05,,2013-04-06 23:22:00,
2013-04-06 16:33:00,44.0,33.0,29.92,SSW,203,12.0,20.0,66,0.00,,,0.05,,2013-04-06 23:33:00,
2013-04-06 16:42:00,44.0,33.0,29.92,SSW,203,12.0,20.0,66,0.00,,,0.05,,2013-04-06 23:42:00,
2013-04-06 16:52:00,44.0,35.0,29.91,WNW,286,7.0,15.0,71,0.00,,,0.05,,2013-04-06 23:52:00,
2013-04-06 17:02:00,43.0,35.0,29.91,WSW,257,4.0,13.0,72,0.00,,,0.05,,2013-04-07 00:02:00,
2013-04-06 17:11:00,43.0,35.0,29.91,WSW,257,4.0,13.0,72,0.00,,,0.05,,2013-04-07 00:11:00,
2013-04-06 17:22:00,42.0,34.0,29.92,WSW,254,9.0,19.0,74,0.00,,,0.05,,2013-04-07 00:22:00,
2013-04-06 17:32:00,41.0,36.0,29.91,WSW,244,5.0,17.0,81,0.00,,,0.04,,2013-04-07 00:32:00,
2013-04-06 17:42:00,41.0,36.0,29.91,WSW,244,5.0,17.0,81,0.00,,,0.04,,2013-04-07 00:42:00,
2013-04-06 17:52:00,39.0,35.0,29.91,SW,236,6.0,14.0,87,0.01,,,0.05,,2013-04-07 00:52:00,
2013-04-06 18:02:00,38.0,35.0,29.91,WSW,247,10.0,17.0,88,0.02,,,0.06,,2013-04-07 01:02:00,
2013-04-06 18:12:00,38.0,35.0,29.91,WSW,247,10.0,17.0,88,0.02,,,0.06,,2013-04-07 01:12:00,
2013-04-06 18:22:00,38.0,35.0,29.91,WSW,254,7.0,11.0,90,0.02,,,0.06,,2013-04-07 01:22:00,
2013-04-06 18:32:00,38.0,36.0,29.90,WSW,239,8.0,12.0,91,0.03,,,0.07,,2013-04-07 01:32:00,
2013-04-06 18:42:00,38.0,36.0,29.90,WSW,239,8.0,12.0,91,0.03,,,0.07,,2013-04-07 01:42:00,
2013-04-06 18:52:00,38.0,35.0,29.89,WSW,243,8.0,16.0,90,0.02,,,0.07,,2013-04-07 01:52:00,
2013-04-06 19:02:00,38.0,35.0,29.89,WSW,240,4.0,11.0,90,0.01,,,0.07,,2013-04-07 02:02:00,
2013-04-06 19:12:00,38.0,35.0,29.89,WSW,240,4.0,11.0,90,0.01,,,0.07,,2013-04-07 02:12:00,
2013-04-06 19:22:00,38.0,35.0,29.88,WSW,243,8.0,15.0,90,0.01,,,0.07,,2013-04-07 02:22:00,
2013-04-06 19:32:00,38.0,36.0,29.88,WSW,243,5.0,11.0,91,0.00,,,0.06,,2013-04-07 02:32:00,
2013-04-06 19:42:00,38.0,36.0,29.88,WSW,243,5.0,11.0,91,0.00,,,0.06,,2013-04-07 02:42:00,
2013-04-06 19:52:00,39.0,36.0,29.88,West,261,7.0,14.0,89,0.00,,,0.06,,2013-04-07 02:52:00,
2013-04-06 20:02:00,38.0,35.0,29.88,SW,215,6.0,13.0,90,0.00,,,0.06,,2013-04-07 03:02:00,
2013-04-06 20:12:00,38.0,35.0,29.88,SW,215,6.0,13.0,90,0.00,,,0.06,,2013-04-07 03:12:00,
2013-04-06 20:22:00,38.0,35.0,29.88,SW,222,7.0,14.0,88,0.00,,,0.06,,2013-04-07 03:22:00,
2013-04-06 20:33:00,38.0,34.0,29.88,SW,222,7.0,15.0,87,0.00,,,0.06,,2013-04-07 03:33:00,
2013-04-06 20:43:00,38.0,34.0,29.88,SW,222,7.0,15.0,87,0.00,,,0.06,,2013-04-07 03:43:00,
2013-04-06 20:53:00,37.0,34.0,29.88,SW,225,6.0,16.0,90,0.01,,,0.07,,2013-04-07 03:53:00,
2013-04-06 21:03:00,37.0,35.0,29.86,SW,227,5.0,10.0,92,0.03,,,0.09,,2013-04-07 04:03:00,
2013-04-06 21:12:00,37.0,35.0,29.86,SW,227,5.0,10.0,92,0.03,,,0.09,,2013-04-07 04:12:00,
2013-04-06 21:23:00,37.0,35.0,29.86,SSW,213,6.0,12.0,92,0.03,,,0.09,,2013-04-07 04:23:00,
2013-04-06 21:32:00,37.0,35.0,29.85,SW,227,5.0,11.0,92,0.02,,,0.09,,2013-04-07 04:32:00,
2013-04-06 21:43:00,37.0,35.0,29.85,SW,227,5.0,11.0,92,0.02,,,0.09,,2013-04-07 04:43:00,
2013-04-06 21:52:00,37.0,35.0,29.85,SW,235,3.0,10.0,93,0.02,,,0.09,,2013-04-07 04:52:00,
2013-04-06 22:02:00,37.0,35.0,29.84,SSW,198,4.0,10.0,93,0.00,,,0.09,,2013-04-07 05:02:00,
2013-04-06 22:12:00,37.0,35.0,29.84,SSW,198,4.0,10.0,93,0.00,,,0.09,,2013-04-07 05:12:00,
2013-04-06 22:22:00,37.0,35.0,29.84,SW,214,5.0,9.0,93,0.00,,,0.09,,2013-04-07 05:22:00,
2013-04-06 22:32:00,37.0,35.0,29.83,SW,223,4.0,9.0,93,0.00,,,0.09,,2013-04-07 05:32:00,
2013-04-06 22:42:00,37.0,35.0,29.83,SW,223,4.0,9.0,93,0.00,,,0.09,,2013-04-07 05:42:00,
2013-04-06 22:52:00,37.0,35.0,29.82,WSW,240,5.0,11.0,93,0.00,,,0.09,,2013-04-07 05:52:00,
2013-04-06 23:02:00,37.0,35.0,29.81,SW,225,9.0,16.0,93,0.00,,,0.09,,2013-04-07 06:02:00,
2013-04-06 23:12:00,37.0,35.0,29.81,SW,225,9.0,16.0,93,0.00,,,0.09,,2013-04-07 06:12:00,
2013-04-06 23:22:00,37.0,35.0,29.80,SW,232,9.0,16.0,92,0.00,,,0.09,,2013-04-07 06:22:00,
2013-04-06 23:32:00,37.0,35.0,29.80,SW,232,9.0,16.0,92,0.00,,,0.09,,2013-04-07 06:32:00,
2013-04-06 23:42:00,37.0,35.0,29.80,SW,232,9.0,16.0,92,0.00,,,0.09,,2013-04-07 06:42:00,
2013-04-06 23:52:00,37.0,35.0,29.80,SW,232,9.0,16.0,92,0.00,,,0.09,,2013-04-07 06:52:00,